sensor_id;sensor_type;location;lat;lon;timestamp;temperature;humidity
12849;DHT22;6493;50.928;7.172;2023-02-17T00:01:20;5.90;59.80
12849;DHT22;6493;50.928;7.172;2023-02-17T00:06:28;5.90;59.70
12849;DHT22;6493;50.928;7.172;2023-02-17T00:11:33;5.90;59.80
12849;DHT22;6493;50.928;7.172;2023-02-17T00:16:36;5.90;59.70
12849;DHT22;6493;50.928;7.172;2023-02-17T00:21:41;6.00;59.80
12849;DHT22;6493;50.928;7.172;2023-02-17T00:26:45;6.00;59.80
12849;DHT22;6493;50.928;7.172;2023-02-17T00:31:51;6.00;60.00
12849;DHT22;6493;50.928;7.172;2023-02-17T00:36:58;6.00;59.90
12849;DHT22;6493;50.928;7.172;2023-02-17T00:42:02;6.00;59.90
12849;DHT22;6493;50.928;7.172;2023-02-17T00:47:06;6.10;60.00
12849;DHT22;6493;50.928;7.172;2023-02-17T00:52:11;6.10;60.70
12849;DHT22;6493;50.928;7.172;2023-02-17T00:57:14;6.10;60.20
12849;DHT22;6493;50.928;7.172;2023-02-17T01:02:18;6.20;60.30
12849;DHT22;6493;50.928;7.172;2023-02-17T01:07:23;6.20;60.30
12849;DHT22;6493;50.928;7.172;2023-02-17T01:12:26;6.20;60.40
12849;DHT22;6493;50.928;7.172;2023-02-17T01:17:30;6.30;60.30
12849;DHT22;6493;50.928;7.172;2023-02-17T01:22:38;6.30;60.60
12849;DHT22;6493;50.928;7.172;2023-02-17T01:27:42;6.30;60.60
12849;DHT22;6493;50.928;7.172;2023-02-17T01:32:45;6.40;60.60
12849;DHT22;6493;50.928;7.172;2023-02-17T01:37:51;6.40;60.50
12849;DHT22;6493;50.928;7.172;2023-02-17T01:42:54;6.40;60.50
12849;DHT22;6493;50.928;7.172;2023-02-17T01:48:02;6.50;60.60
12849;DHT22;6493;50.928;7.172;2023-02-17T01:53:11;6.50;60.70
12849;DHT22;6493;50.928;7.172;2023-02-17T01:58:18;6.50;60.60
12849;DHT22;6493;50.928;7.172;2023-02-17T02:03:23;6.50;60.50
12849;DHT22;6493;50.928;7.172;2023-02-17T02:08:36;6.60;60.50
12849;DHT22;6493;50.928;7.172;2023-02-17T02:13:40;6.50;60.50
12849;DHT22;6493;50.928;7.172;2023-02-17T02:18:52;6.60;60.50
12849;DHT22;6493;50.928;7.172;2023-02-17T02:24:15;6.60;60.80
12849;DHT22;6493;50.928;7.172;2023-02-17T02:34:58;6.60;60.90
12849;DHT22;6493;50.928;7.172;2023-02-17T02:40:07;6.60;60.90
12849;DHT22;6493;50.928;7.172;2023-02-17T02:45:12;6.60;60.80
12849;DHT22;6493;50.928;7.172;2023-02-17T02:50:20;6.60;60.90
12849;DHT22;6493;50.928;7.172;2023-02-17T02:55:36;6.60;61.40
12849;DHT22;6493;50.928;7.172;2023-02-17T03:00:52;6.60;61.10
12849;DHT22;6493;50.928;7.172;2023-02-17T03:06:02;6.60;61.00
12849;DHT22;6493;50.928;7.172;2023-02-17T03:11:08;6.70;61.30
12849;DHT22;6493;50.928;7.172;2023-02-17T03:16:12;6.70;61.00
12849;DHT22;6493;50.928;7.172;2023-02-17T03:21:18;6.80;61.10
12849;DHT22;6493;50.928;7.172;2023-02-17T03:26:22;6.80;61.10
12849;DHT22;6493;50.928;7.172;2023-02-17T03:31:26;6.80;61.00
12849;DHT22;6493;50.928;7.172;2023-02-17T03:36:33;6.90;61.20
12849;DHT22;6493;50.928;7.172;2023-02-17T03:41:37;6.90;61.30
12849;DHT22;6493;50.928;7.172;2023-02-17T03:46:40;6.90;61.30
12849;DHT22;6493;50.928;7.172;2023-02-17T03:51:45;6.90;61.40
12849;DHT22;6493;50.928;7.172;2023-02-17T03:56:49;6.90;61.20
12849;DHT22;6493;50.928;7.172;2023-02-17T04:01:53;7.00;61.30
12849;DHT22;6493;50.928;7.172;2023-02-17T04:06:58;7.00;61.20
12849;DHT22;6493;50.928;7.172;2023-02-17T04:12:01;7.00;61.20
12849;DHT22;6493;50.928;7.172;2023-02-17T04:17:05;7.10;61.10
12849;DHT22;6493;50.928;7.172;2023-02-17T04:22:10;7.10;61.80
12849;DHT22;6493;50.928;7.172;2023-02-17T04:27:14;7.10;61.40
12849;DHT22;6493;50.928;7.172;2023-02-17T04:32:17;7.10;61.40
12849;DHT22;6493;50.928;7.172;2023-02-17T04:37:22;7.20;61.30
12849;DHT22;6493;50.928;7.172;2023-02-17T04:42:26;7.20;61.40
12849;DHT22;6493;50.928;7.172;2023-02-17T04:47:29;7.20;62.00
12849;DHT22;6493;50.928;7.172;2023-02-17T04:52:35;7.30;61.30
12849;DHT22;6493;50.928;7.172;2023-02-17T04:57:38;7.30;61.40
12849;DHT22;6493;50.928;7.172;2023-02-17T05:02:42;7.20;61.30
12849;DHT22;6493;50.928;7.172;2023-02-17T05:07:47;7.30;61.30
12849;DHT22;6493;50.928;7.172;2023-02-17T05:12:51;7.30;61.20
12849;DHT22;6493;50.928;7.172;2023-02-17T05:17:56;7.30;61.00
12849;DHT22;6493;50.928;7.172;2023-02-17T05:23:01;7.30;60.80
12849;DHT22;6493;50.928;7.172;2023-02-17T05:28:04;7.40;60.90
12849;DHT22;6493;50.928;7.172;2023-02-17T05:33:08;7.30;60.80
12849;DHT22;6493;50.928;7.172;2023-02-17T05:38:13;7.30;60.80
12849;DHT22;6493;50.928;7.172;2023-02-17T05:43:16;7.40;60.90
12849;DHT22;6493;50.928;7.172;2023-02-17T05:48:20;7.40;60.90
12849;DHT22;6493;50.928;7.172;2023-02-17T05:53:25;7.40;61.00
12849;DHT22;6493;50.928;7.172;2023-02-17T05:58:29;7.30;60.80
12849;DHT22;6493;50.928;7.172;2023-02-17T06:03:33;7.30;60.80
12849;DHT22;6493;50.928;7.172;2023-02-17T06:08:38;7.30;60.80
12849;DHT22;6493;50.928;7.172;2023-02-17T06:13:42;7.40;61.00
12849;DHT22;6493;50.928;7.172;2023-02-17T06:18:45;7.40;60.90
12849;DHT22;6493;50.928;7.172;2023-02-17T06:23:50;7.40;60.90
12849;DHT22;6493;50.928;7.172;2023-02-17T06:28:54;7.40;60.90
12849;DHT22;6493;50.928;7.172;2023-02-17T06:33:57;7.30;60.80
12849;DHT22;6493;50.928;7.172;2023-02-17T06:39:02;7.30;60.80
12849;DHT22;6493;50.928;7.172;2023-02-17T06:44:06;7.30;60.80
12849;DHT22;6493;50.928;7.172;2023-02-17T06:49:10;7.40;60.90
12849;DHT22;6493;50.928;7.172;2023-02-17T06:54:15;7.30;60.80
12849;DHT22;6493;50.928;7.172;2023-02-17T06:59:19;7.40;60.90
12849;DHT22;6493;50.928;7.172;2023-02-17T07:04:23;7.40;61.70
12849;DHT22;6493;50.928;7.172;2023-02-17T07:09:28;7.30;60.80
12849;DHT22;6493;50.928;7.172;2023-02-17T07:14:32;7.40;60.90
12849;DHT22;6493;50.928;7.172;2023-02-17T07:19:36;7.40;61.00
12849;DHT22;6493;50.928;7.172;2023-02-17T07:24:41;7.40;60.90
12849;DHT22;6493;50.928;7.172;2023-02-17T07:29:45;7.40;61.00
12849;DHT22;6493;50.928;7.172;2023-02-17T07:34:48;7.50;61.00
12849;DHT22;6493;50.928;7.172;2023-02-17T07:39:53;7.40;61.70
12849;DHT22;6493;50.928;7.172;2023-02-17T07:44:58;7.40;60.90
12849;DHT22;6493;50.928;7.172;2023-02-17T07:50:02;7.40;60.90
12849;DHT22;6493;50.928;7.172;2023-02-17T07:55:07;7.40;61.20
12849;DHT22;6493;50.928;7.172;2023-02-17T08:00:12;7.40;61.30
12849;DHT22;6493;50.928;7.172;2023-02-17T08:05:16;7.40;61.30
12849;DHT22;6493;50.928;7.172;2023-02-17T08:10:21;7.40;61.40
12849;DHT22;6493;50.928;7.172;2023-02-17T08:15:51;7.40;61.60
12849;DHT22;6493;50.928;7.172;2023-02-17T08:20:54;7.40;61.70
12849;DHT22;6493;50.928;7.172;2023-02-17T08:25:59;7.40;61.80
12849;DHT22;6493;50.928;7.172;2023-02-17T08:31:03;7.50;61.90
12849;DHT22;6493;50.928;7.172;2023-02-17T08:36:08;7.50;61.90
12849;DHT22;6493;50.928;7.172;2023-02-17T08:41:14;7.60;62.20
12849;DHT22;6493;50.928;7.172;2023-02-17T08:46:19;7.50;62.00
12849;DHT22;6493;50.928;7.172;2023-02-17T08:51:23;7.60;62.20
12849;DHT22;6493;50.928;7.172;2023-02-17T08:56:31;7.60;62.30
12849;DHT22;6493;50.928;7.172;2023-02-17T09:01:35;7.70;62.40
12849;DHT22;6493;50.928;7.172;2023-02-17T09:06:41;7.80;62.70
12849;DHT22;6493;50.928;7.172;2023-02-17T09:11:46;7.80;62.80
12849;DHT22;6493;50.928;7.172;2023-02-17T09:16:51;7.90;62.80
12849;DHT22;6493;50.928;7.172;2023-02-17T09:21:56;8.00;63.10
12849;DHT22;6493;50.928;7.172;2023-02-17T09:27:01;8.10;63.20
12849;DHT22;6493;50.928;7.172;2023-02-17T09:32:06;8.20;63.50
12849;DHT22;6493;50.928;7.172;2023-02-17T09:37:11;8.40;63.60
12849;DHT22;6493;50.928;7.172;2023-02-17T09:42:18;8.50;63.90
12849;DHT22;6493;50.928;7.172;2023-02-17T09:47:25;8.70;64.60
12849;DHT22;6493;50.928;7.172;2023-02-17T09:52:35;8.90;64.50
12849;DHT22;6493;50.928;7.172;2023-02-17T09:57:48;9.10;64.70
12849;DHT22;6493;50.928;7.172;2023-02-17T10:02:58;9.30;64.70
12849;DHT22;6493;50.928;7.172;2023-02-17T10:08:07;9.50;64.50
12849;DHT22;6493;50.928;7.172;2023-02-17T10:13:16;9.60;64.30
12849;DHT22;6493;50.928;7.172;2023-02-17T10:18:29;9.70;64.30
12849;DHT22;6493;50.928;7.172;2023-02-17T10:23:33;9.90;64.60
12849;DHT22;6493;50.928;7.172;2023-02-17T10:28:48;10.10;64.70
12849;DHT22;6493;50.928;7.172;2023-02-17T10:34:00;10.30;64.80
12849;DHT22;6493;50.928;7.172;2023-02-17T10:39:12;10.50;64.50
12849;DHT22;6493;50.928;7.172;2023-02-17T10:44:21;10.70;64.40
12849;DHT22;6493;50.928;7.172;2023-02-17T10:49:28;10.90;64.50
12849;DHT22;6493;50.928;7.172;2023-02-17T10:54:36;11.00;64.30
12849;DHT22;6493;50.928;7.172;2023-02-17T10:59:43;11.20;64.30
12849;DHT22;6493;50.928;7.172;2023-02-17T11:04:49;11.30;64.00
12849;DHT22;6493;50.928;7.172;2023-02-17T11:09:58;11.50;63.90
12849;DHT22;6493;50.928;7.172;2023-02-17T11:15:04;11.50;63.60
12849;DHT22;6493;50.928;7.172;2023-02-17T11:20:29;11.60;63.20
12849;DHT22;6493;50.928;7.172;2023-02-17T11:25:35;11.60;62.90
12849;DHT22;6493;50.928;7.172;2023-02-17T11:30:49;11.60;62.70
12849;DHT22;6493;50.928;7.172;2023-02-17T11:35:53;11.60;62.60
12849;DHT22;6493;50.928;7.172;2023-02-17T11:40:59;11.60;62.60
12849;DHT22;6493;50.928;7.172;2023-02-17T11:46:17;11.50;62.50
12849;DHT22;6493;50.928;7.172;2023-02-17T11:51:27;11.50;62.20
12849;DHT22;6493;50.928;7.172;2023-02-17T11:56:36;11.50;62.20
12849;DHT22;6493;50.928;7.172;2023-02-17T12:01:57;11.50;62.10
12849;DHT22;6493;50.928;7.172;2023-02-17T12:12:58;11.40;62.50
12849;DHT22;6493;50.928;7.172;2023-02-17T12:18:13;11.50;62.20
12849;DHT22;6493;50.928;7.172;2023-02-17T12:23:37;11.50;62.10
12849;DHT22;6493;50.928;7.172;2023-02-17T12:28:53;11.50;62.00
12849;DHT22;6493;50.928;7.172;2023-02-17T12:34:01;11.50;61.90
12849;DHT22;6493;50.928;7.172;2023-02-17T12:39:14;11.50;61.70
12849;DHT22;6493;50.928;7.172;2023-02-17T12:44:23;11.40;61.80
12849;DHT22;6493;50.928;7.172;2023-02-17T12:49:33;11.50;61.80
12849;DHT22;6493;50.928;7.172;2023-02-17T12:54:44;11.60;62.10
12849;DHT22;6493;50.928;7.172;2023-02-17T12:59:51;11.60;61.80
12849;DHT22;6493;50.928;7.172;2023-02-17T13:05:01;11.70;61.90
12849;DHT22;6493;50.928;7.172;2023-02-17T13:10:18;11.70;61.70
12849;DHT22;6493;50.928;7.172;2023-02-17T13:15:28;11.80;61.80
12849;DHT22;6493;50.928;7.172;2023-02-17T13:20:52;11.80;61.50
12849;DHT22;6493;50.928;7.172;2023-02-17T13:26:24;11.90;61.70
12849;DHT22;6493;50.928;7.172;2023-02-17T13:31:28;12.00;61.30
12849;DHT22;6493;50.928;7.172;2023-02-17T13:36:36;12.00;61.30
12849;DHT22;6493;50.928;7.172;2023-02-17T13:41:45;12.00;61.00
12849;DHT22;6493;50.928;7.172;2023-02-17T13:46:50;12.10;61.00
12849;DHT22;6493;50.928;7.172;2023-02-17T13:52:07;12.00;60.90
12849;DHT22;6493;50.928;7.172;2023-02-17T13:57:24;12.00;60.60
12849;DHT22;6493;50.928;7.172;2023-02-17T14:02:28;12.00;60.70
12849;DHT22;6493;50.928;7.172;2023-02-17T14:07:39;11.90;60.60
12849;DHT22;6493;50.928;7.172;2023-02-17T14:12:42;11.90;60.50
12849;DHT22;6493;50.928;7.172;2023-02-17T14:17:46;11.90;60.80
12849;DHT22;6493;50.928;7.172;2023-02-17T14:23:00;11.90;60.70
12849;DHT22;6493;50.928;7.172;2023-02-17T14:28:18;11.90;60.30
12849;DHT22;6493;50.928;7.172;2023-02-17T14:33:24;11.80;60.40
12849;DHT22;6493;50.928;7.172;2023-02-17T14:38:30;11.80;60.50
12849;DHT22;6493;50.928;7.172;2023-02-17T14:43:36;11.80;60.40
12849;DHT22;6493;50.928;7.172;2023-02-17T14:48:40;11.70;60.30
12849;DHT22;6493;50.928;7.172;2023-02-17T14:53:45;11.70;60.40
12849;DHT22;6493;50.928;7.172;2023-02-17T14:58:49;11.60;60.00
12849;DHT22;6493;50.928;7.172;2023-02-17T15:03:54;11.60;60.30
12849;DHT22;6493;50.928;7.172;2023-02-17T15:08:59;11.60;60.00
12849;DHT22;6493;50.928;7.172;2023-02-17T15:14:03;11.60;60.00
12849;DHT22;6493;50.928;7.172;2023-02-17T15:19:07;11.50;59.50
12849;DHT22;6493;50.928;7.172;2023-02-17T15:24:15;11.50;59.90
12849;DHT22;6493;50.928;7.172;2023-02-17T15:29:21;11.40;59.80
12849;DHT22;6493;50.928;7.172;2023-02-17T15:34:28;11.30;59.70
12849;DHT22;6493;50.928;7.172;2023-02-17T15:39:34;11.30;59.80
12849;DHT22;6493;50.928;7.172;2023-02-17T15:44:41;11.20;59.70
12849;DHT22;6493;50.928;7.172;2023-02-17T15:49:46;11.10;59.60
12849;DHT22;6493;50.928;7.172;2023-02-17T15:54:51;11.10;59.60
12849;DHT22;6493;50.928;7.172;2023-02-17T15:59:55;11.00;59.60
12849;DHT22;6493;50.928;7.172;2023-02-17T16:04:59;11.00;60.40
12849;DHT22;6493;50.928;7.172;2023-02-17T16:10:05;11.00;59.80
12849;DHT22;6493;50.928;7.172;2023-02-17T16:15:12;10.90;59.70
12849;DHT22;6493;50.928;7.172;2023-02-17T16:20:19;10.80;59.70
12849;DHT22;6493;50.928;7.172;2023-02-17T16:25:24;10.70;59.60
12849;DHT22;6493;50.928;7.172;2023-02-17T16:30:30;10.70;59.80
12849;DHT22;6493;50.928;7.172;2023-02-17T16:35:34;10.60;59.80
12849;DHT22;6493;50.928;7.172;2023-02-17T16:40:43;10.50;59.80
12849;DHT22;6493;50.928;7.172;2023-02-17T16:45:52;10.40;59.80
12849;DHT22;6493;50.928;7.172;2023-02-17T16:50:57;10.30;60.00
12849;DHT22;6493;50.928;7.172;2023-02-17T16:56:13;10.20;60.20
12849;DHT22;6493;50.928;7.172;2023-02-17T17:01:17;10.00;60.20
12849;DHT22;6493;50.928;7.172;2023-02-17T17:06:23;9.90;60.30
12849;DHT22;6493;50.928;7.172;2023-02-17T17:11:28;9.80;60.30
12849;DHT22;6493;50.928;7.172;2023-02-17T17:16:33;9.70;60.30
12849;DHT22;6493;50.928;7.172;2023-02-17T17:21:37;9.60;60.30
12849;DHT22;6493;50.928;7.172;2023-02-17T17:26:43;9.50;60.40
12849;DHT22;6493;50.928;7.172;2023-02-17T17:31:47;9.50;60.50
12849;DHT22;6493;50.928;7.172;2023-02-17T17:36:51;9.40;60.60
12849;DHT22;6493;50.928;7.172;2023-02-17T17:41:56;9.40;60.50
12849;DHT22;6493;50.928;7.172;2023-02-17T17:47:00;9.40;60.60
12849;DHT22;6493;50.928;7.172;2023-02-17T17:52:04;9.30;60.60
12849;DHT22;6493;50.928;7.172;2023-02-17T17:57:09;9.30;60.70
12849;DHT22;6493;50.928;7.172;2023-02-17T18:02:13;9.30;60.70
12849;DHT22;6493;50.928;7.172;2023-02-17T18:07:17;9.30;60.60
12849;DHT22;6493;50.928;7.172;2023-02-17T18:12:22;9.30;60.60
12849;DHT22;6493;50.928;7.172;2023-02-17T18:17:26;9.30;60.80
12849;DHT22;6493;50.928;7.172;2023-02-17T18:22:30;9.30;60.70
12849;DHT22;6493;50.928;7.172;2023-02-17T18:27:39;9.30;60.90
12849;DHT22;6493;50.928;7.172;2023-02-17T18:32:44;9.30;60.90
12849;DHT22;6493;50.928;7.172;2023-02-17T18:37:48;9.20;60.70
12849;DHT22;6493;50.928;7.172;2023-02-17T18:42:53;9.20;60.70
12849;DHT22;6493;50.928;7.172;2023-02-17T18:47:57;9.20;61.00
12849;DHT22;6493;50.928;7.172;2023-02-17T18:53:01;9.20;61.00
12849;DHT22;6493;50.928;7.172;2023-02-17T18:58:08;9.20;61.10
12849;DHT22;6493;50.928;7.172;2023-02-17T19:03:13;9.10;60.90
12849;DHT22;6493;50.928;7.172;2023-02-17T19:08:17;9.10;61.20
12849;DHT22;6493;50.928;7.172;2023-02-17T19:13:22;9.10;61.80
12849;DHT22;6493;50.928;7.172;2023-02-17T19:18:26;9.10;61.10
12849;DHT22;6493;50.928;7.172;2023-02-17T19:23:29;9.10;61.10
12849;DHT22;6493;50.928;7.172;2023-02-17T19:28:36;9.10;61.30
12849;DHT22;6493;50.928;7.172;2023-02-17T19:33:40;9.10;61.30
12849;DHT22;6493;50.928;7.172;2023-02-17T19:38:44;9.10;61.40
12849;DHT22;6493;50.928;7.172;2023-02-17T19:43:50;9.00;61.10
12849;DHT22;6493;50.928;7.172;2023-02-17T19:48:53;9.00;61.30
12849;DHT22;6493;50.928;7.172;2023-02-17T19:53:57;9.00;61.30
12849;DHT22;6493;50.928;7.172;2023-02-17T19:59:02;8.90;61.50
12849;DHT22;6493;50.928;7.172;2023-02-17T20:04:06;8.90;61.40
12849;DHT22;6493;50.928;7.172;2023-02-17T20:09:13;8.90;62.00
12849;DHT22;6493;50.928;7.172;2023-02-17T20:14:19;8.90;61.70
12849;DHT22;6493;50.928;7.172;2023-02-17T20:19:22;8.90;61.80
12849;DHT22;6493;50.928;7.172;2023-02-17T20:24:26;8.90;61.60
12849;DHT22;6493;50.928;7.172;2023-02-17T20:29:31;8.80;61.60
12849;DHT22;6493;50.928;7.172;2023-02-17T20:34:37;8.80;61.50
12849;DHT22;6493;50.928;7.172;2023-02-17T20:39:41;8.80;61.50
12849;DHT22;6493;50.928;7.172;2023-02-17T20:44:48;8.80;61.60
12849;DHT22;6493;50.928;7.172;2023-02-17T20:49:52;8.70;61.60
12849;DHT22;6493;50.928;7.172;2023-02-17T20:54:55;8.70;61.50
12849;DHT22;6493;50.928;7.172;2023-02-17T21:00:00;8.70;61.70
12849;DHT22;6493;50.928;7.172;2023-02-17T21:05:06;8.70;61.80
12849;DHT22;6493;50.928;7.172;2023-02-17T21:10:14;8.60;61.70
12849;DHT22;6493;50.928;7.172;2023-02-17T21:15:19;8.60;61.70
12849;DHT22;6493;50.928;7.172;2023-02-17T21:20:23;8.60;61.70
12849;DHT22;6493;50.928;7.172;2023-02-17T21:25:27;8.50;62.00
12849;DHT22;6493;50.928;7.172;2023-02-17T21:30:31;8.60;62.20
12849;DHT22;6493;50.928;7.172;2023-02-17T21:35:35;8.50;62.10
12849;DHT22;6493;50.928;7.172;2023-02-17T21:40:39;8.50;62.10
12849;DHT22;6493;50.928;7.172;2023-02-17T21:45:44;8.50;62.00
12849;DHT22;6493;50.928;7.172;2023-02-17T21:50:47;8.50;62.80
12849;DHT22;6493;50.928;7.172;2023-02-17T21:55:51;8.50;62.10
12849;DHT22;6493;50.928;7.172;2023-02-17T22:00:56;8.40;62.00
12849;DHT22;6493;50.928;7.172;2023-02-17T22:06:00;8.40;62.00
12849;DHT22;6493;50.928;7.172;2023-02-17T22:11:15;8.40;62.00
12849;DHT22;6493;50.928;7.172;2023-02-17T22:16:21;8.40;62.00
12849;DHT22;6493;50.928;7.172;2023-02-17T22:21:25;8.40;62.00
12849;DHT22;6493;50.928;7.172;2023-02-17T22:26:29;8.40;62.00
12849;DHT22;6493;50.928;7.172;2023-02-17T22:31:34;8.40;62.00
12849;DHT22;6493;50.928;7.172;2023-02-17T22:36:38;8.30;62.60
12849;DHT22;6493;50.928;7.172;2023-02-17T22:41:42;8.30;62.10
12849;DHT22;6493;50.928;7.172;2023-02-17T22:46:47;8.30;62.20
12849;DHT22;6493;50.928;7.172;2023-02-17T22:51:50;8.30;62.20
12849;DHT22;6493;50.928;7.172;2023-02-17T22:56:54;8.30;62.20
12849;DHT22;6493;50.928;7.172;2023-02-17T23:01:59;8.30;62.10
12849;DHT22;6493;50.928;7.172;2023-02-17T23:07:02;8.30;62.00
12849;DHT22;6493;50.928;7.172;2023-02-17T23:12:06;8.30;62.00
12849;DHT22;6493;50.928;7.172;2023-02-17T23:17:12;8.30;62.10
12849;DHT22;6493;50.928;7.172;2023-02-17T23:22:16;8.30;62.20
12849;DHT22;6493;50.928;7.172;2023-02-17T23:27:20;8.30;61.90
12849;DHT22;6493;50.928;7.172;2023-02-17T23:32:25;8.30;62.10
12849;DHT22;6493;50.928;7.172;2023-02-17T23:37:29;8.30;62.10
12849;DHT22;6493;50.928;7.172;2023-02-17T23:42:33;8.30;62.20
12849;DHT22;6493;50.928;7.172;2023-02-17T23:47:38;8.30;62.20
12849;DHT22;6493;50.928;7.172;2023-02-17T23:52:41;8.30;62.30
12849;DHT22;6493;50.928;7.172;2023-02-17T23:57:45;8.30;62.20
